Time;durP1;ratioP1;P1;durP2;ratioP2;P2;SDS_P1;SDS_P2;PMS_P1;PMS_P2;Temp;Humidity;BMP_temperature;BMP_pressure;BME280_temperature;BME280_humidity;BME280_pressure;Samples;Min_cycle;Max_cycle;Signal;HPM_P1;HPM_P2
2024/01/25 00:00:24;;;;;;;114.88;54.97;;;;;;;;;;5012047;28;20124;-78
2024/01/25 00:02:49;;;;;;;98.50;49.75;;;;;;;;;;5012044;28;20038;-78
2024/01/25 00:05:15;;;;;;;104.13;49.70;;;;;;;;;;5011121;28;20030;-78
2024/01/25 00:07:48;;;;;;;102.78;49.50;;;;;;;;;;5009021;28;20053;-77
2024/01/25 00:10:17;;;;;;;90.43;45.88;;;;;;;;;;5012388;28;20088;-77
2024/01/25 00:12:42;;;;;;;97.22;46.47;;;;;;;;;;5013383;28;20132;-78
2024/01/25 00:15:09;;;;;;;90.28;45.63;;;;;;;;;;5017520;28;20545;-78
2024/01/25 00:17:36;;;;;;;81.72;42.10;;;;;;;;;;5011605;28;20040;-78
2024/01/25 00:20:02;;;;;;;99.47;48.47;;;;;;;;;;5012214;28;20030;-78
2024/01/25 00:22:30;;;;;;;102.45;45.47;;;;;;;;;;5012563;28;20076;-79
2024/01/25 00:24:56;;;;;;;103.70;48.88;;;;;;;;;;5011490;28;20072;-77
2024/01/25 00:27:21;;;;;;;86.15;45.38;;;;;;;;;;5012551;28;20048;-77
2024/01/25 00:29:47;;;;;;;78.88;41.25;;;;;;;;;;5012141;28;20040;-77
2024/01/25 00:32:13;;;;;;;86.35;42.50;;;;;;;;;;5012161;28;20025;-77
2024/01/25 00:34:40;;;;;;;81.80;42.78;;;;;;;;;;5012541;28;20084;-77
2024/01/25 00:37:06;;;;;;;86.07;41.08;;;;;;;;;;5011576;28;20030;-77
2024/01/25 00:39:32;;;;;;;84.15;41.17;;;;;;;;;;5009241;28;20444;-77
2024/01/25 00:42:05;;;;;;;79.13;38.58;;;;;;;;;;5011873;28;20130;-77
2024/01/25 00:44:31;;;;;;;;;;;;;;;;;;5012238;28;20499;-77
2024/01/25 00:46:57;;;;;;;88.82;44.92;;;;;;;;;;5012712;28;19963;-77
2024/01/25 00:49:25;;;;;;;72.45;37.85;;;;;;;;;;4994934;28;20117;-78
2024/01/25 00:51:59;;;;;;;77.40;38.05;;;;;;;;;;4994783;28;20028;-77
2024/01/25 00:54:26;;;;;;;82.15;39.25;;;;;;;;;;5012141;28;20109;-78
2024/01/25 00:56:52;;;;;;;79.10;39.17;;;;;;;;;;5011511;28;20112;-78
2024/01/25 00:59:19;;;;;;;78.47;36.72;;;;;;;;;;5010849;28;20460;-76
2024/01/25 01:01:47;;;;;;;69.65;37.15;;;;;;;;;;5011880;28;20049;-78
2024/01/25 01:04:17;;;;;;;70.68;36.30;;;;;;;;;;5011721;28;20013;-78
2024/01/25 01:06:43;;;;;;;72.07;35.50;;;;;;;;;;5010210;28;20136;-77
2024/01/25 01:09:08;;;;;;;66.72;32.70;;;;;;;;;;4990787;28;20519;-77
2024/01/25 01:11:36;;;;;;;67.47;32.50;;;;;;;;;;5008477;28;20022;-77
2024/01/25 01:14:02;;;;;;;75.60;38.22;;;;;;;;;;5011859;28;20037;-76
2024/01/25 01:16:33;;;;;;;65.00;34.35;;;;;;;;;;5011789;28;20037;-77
2024/01/25 01:19:06;;;;;;;68.88;32.13;;;;;;;;;;5010608;28;20380;-77
2024/01/25 01:21:33;;;;;;;68.80;33.88;;;;;;;;;;5011814;28;20108;-77
2024/01/25 01:23:59;;;;;;;67.25;31.02;;;;;;;;;;5010616;28;20053;-77
2024/01/25 01:26:24;;;;;;;61.97;32.53;;;;;;;;;;5011950;28;20061;-77
2024/01/25 01:28:50;;;;;;;67.38;33.92;;;;;;;;;;5011916;28;20037;-77
2024/01/25 01:31:16;;;;;;;68.47;33.80;;;;;;;;;;5012002;28;20097;-77
2024/01/25 01:33:41;;;;;;;57.95;31.75;;;;;;;;;;5010067;28;20137;-78
2024/01/25 01:36:08;;;;;;;62.55;32.45;;;;;;;;;;5010864;28;20053;-77
2024/01/25 01:38:34;;;;;;;65.95;33.92;;;;;;;;;;5011956;28;20522;-77
2024/01/25 01:41:00;;;;;;;60.72;34.08;;;;;;;;;;5011702;28;20539;-77
2024/01/25 01:43:25;;;;;;;67.95;35.55;;;;;;;;;;5010263;28;20124;-77
2024/01/25 01:45:51;;;;;;;85.85;43.00;;;;;;;;;;5010947;28;20050;-77
2024/01/25 01:48:17;;;;;;;85.10;42.10;;;;;;;;;;5011665;28;20030;-78
2024/01/25 01:50:44;;;;;;;77.00;42.15;;;;;;;;;;5010369;28;20030;-77
2024/01/25 01:53:10;;;;;;;83.50;41.78;;;;;;;;;;5011564;28;20033;-76
2024/01/25 01:55:36;;;;;;;76.90;42.90;;;;;;;;;;5010973;28;20038;-78
2024/01/25 01:58:02;;;;;;;86.75;40.25;;;;;;;;;;5011817;28;20073;-78
2024/01/25 02:00:31;;;;;;;62.25;32.67;;;;;;;;;;4994276;28;20045;-77
2024/01/25 02:02:59;;;;;;;69.50;34.00;;;;;;;;;;5011945;28;20034;-77
2024/01/25 02:05:25;;;;;;;51.60;28.33;;;;;;;;;;5010472;28;20045;-77
2024/01/25 02:07:52;;;;;;;56.45;29.50;;;;;;;;;;5014348;28;20379;-76
2024/01/25 02:10:18;;;;;;;55.05;31.55;;;;;;;;;;5013947;28;20041;-78
2024/01/25 02:12:44;;;;;;;62.83;30.08;;;;;;;;;;5015226;28;20033;-77
2024/01/25 02:15:09;;;;;;;65.93;35.38;;;;;;;;;;5015071;28;20025;-77
2024/01/25 02:17:35;;;;;;;65.65;34.45;;;;;;;;;;5015088;28;20082;-77
2024/01/25 02:20:03;;;;;;;64.97;34.22;;;;;;;;;;5013374;28;20108;-77
2024/01/25 02:22:29;;;;;;;58.80;33.13;;;;;;;;;;5014733;28;20037;-77
2024/01/25 02:24:54;;;;;;;63.70;32.38;;;;;;;;;;5014826;28;20025;-77
2024/01/25 02:27:20;;;;;;;55.00;29.83;;;;;;;;;;5013109;28;20109;-78
2024/01/25 02:29:46;;;;;;;48.38;25.70;;;;;;;;;;5014726;28;20500;-77
2024/01/25 02:32:11;;;;;;;57.95;29.77;;;;;;;;;;5014931;28;20065;-77
2024/01/25 02:34:37;;;;;;;60.20;31.55;;;;;;;;;;5015932;28;20057;-77
2024/01/25 02:37:03;;;;;;;48.33;26.13;;;;;;;;;;5014745;28;20032;-77
2024/01/25 02:39:29;;;;;;;46.75;23.65;;;;;;;;;;5014882;28;20128;-77
2024/01/25 02:41:54;;;;;;;40.30;22.65;;;;;;;;;;5014970;28;20109;-77
2024/01/25 02:44:20;;;;;;;62.85;32.90;;;;;;;;;;5014728;28;20434;-77
2024/01/25 02:46:46;;;;;;;51.85;29.45;;;;;;;;;;5014343;28;20053;-77
2024/01/25 02:49:12;;;;;;;66.32;32.22;;;;;;;;;;5013246;28;20156;-77
2024/01/25 02:51:38;;;;;;;65.15;31.23;;;;;;;;;;5012952;28;20061;-77
2024/01/25 02:54:06;;;;;;;61.13;32.63;;;;;;;;;;5014278;28;20041;-77
2024/01/25 02:56:34;;;;;;;57.03;29.25;;;;;;;;;;5014041;28;20033;-77
2024/01/25 02:59:03;;;;;;;60.63;28.48;;;;;;;;;;5013524;28;20013;-77
2024/01/25 03:01:37;;;;;;;51.28;26.65;;;;;;;;;;5013779;28;20125;-77
2024/01/25 03:04:03;;;;;;;42.83;22.55;;;;;;;;;;5012824;28;20062;-77
2024/01/25 03:06:29;;;;;;;38.28;21.75;;;;;;;;;;5013162;28;20108;-77
2024/01/25 03:08:54;;;;;;;43.95;20.85;;;;;;;;;;5010694;28;20042;-78
2024/01/25 03:11:20;;;;;;;42.22;20.38;;;;;;;;;;5010886;28;20040;-77
2024/01/25 03:13:46;;;;;;;42.60;21.88;;;;;;;;;;5019405;28;20032;-77
2024/01/25 03:16:11;;;;;;;40.50;22.17;;;;;;;;;;5014861;28;20042;-77
2024/01/25 03:18:37;;;;;;;39.47;22.17;;;;;;;;;;5011369;28;20112;-77
2024/01/25 03:21:03;;;;;;;47.55;24.65;;;;;;;;;;5013007;28;20025;-77
2024/01/25 03:23:30;;;;;;;43.28;24.23;;;;;;;;;;5011997;28;20030;-78
2024/01/25 03:25:56;;;;;;;38.88;21.67;;;;;;;;;;5012919;28;20120;-77
2024/01/25 03:28:22;;;;;;;33.53;19.52;;;;;;;;;;5013208;28;20030;-76
2024/01/25 03:30:48;;;;;;;40.50;20.00;;;;;;;;;;5013406;28;20116;-77
2024/01/25 03:33:14;;;;;;;40.33;20.48;;;;;;;;;;5012977;28;20511;-76
2024/01/25 03:35:39;;;;;;;43.28;19.88;;;;;;;;;;5012884;28;20064;-78
2024/01/25 03:38:05;;;;;;;45.53;22.00;;;;;;;;;;5014697;28;20056;-76
2024/01/25 03:40:31;;;;;;;40.67;21.13;;;;;;;;;;5013237;28;20038;-76
2024/01/25 03:42:57;;;;;;;39.95;20.75;;;;;;;;;;5012003;28;20032;-77
2024/01/25 03:45:22;;;;;;;40.63;21.50;;;;;;;;;;5011364;28;20192;-76
2024/01/25 03:47:48;;;;;;;44.88;21.65;;;;;;;;;;5013089;28;20044;-76
2024/01/25 03:50:14;;;;;;;55.58;24.30;;;;;;;;;;5013016;28;20033;-76
2024/01/25 03:52:40;;;;;;;60.50;27.70;;;;;;;;;;4995480;28;20180;-77
2024/01/25 03:55:06;;;;;;;63.60;27.83;;;;;;;;;;5012875;28;20113;-77
2024/01/25 03:57:32;;;;;;;49.88;24.80;;;;;;;;;;5011806;28;20185;-78
2024/01/25 03:59:58;;;;;;;56.17;27.08;;;;;;;;;;5011825;28;20654;-78
2024/01/25 04:02:23;;;;;;;64.20;30.30;;;;;;;;;;5012724;28;20476;-78
2024/01/25 04:04:50;;;;;;;51.97;28.92;;;;;;;;;;5011190;28;20075;-78
2024/01/25 04:07:16;;;;;;;54.55;29.92;;;;;;;;;;5012266;28;20038;-77
2024/01/25 04:09:42;;;;;;;51.22;26.30;;;;;;;;;;5011645;28;20052;-77
2024/01/25 04:12:08;;;;;;;67.28;29.90;;;;;;;;;;5022295;28;20032;-77
2024/01/25 04:14:33;;;;;;;56.08;29.58;;;;;;;;;;5032227;28;20120;-77
2024/01/25 04:16:59;;;;;;;57.70;28.73;;;;;;;;;;5032023;28;20080;-78
2024/01/25 04:19:26;;;;;;;54.92;27.48;;;;;;;;;;5032166;28;20029;-76
2024/01/25 04:21:53;;;;;;;47.47;22.92;;;;;;;;;;5031712;28;20064;-77
2024/01/25 04:24:19;;;;;;;42.00;22.13;;;;;;;;;;5032118;28;20080;-78
2024/01/25 04:26:44;;;;;;;48.53;23.70;;;;;;;;;;5028060;28;20439;-77
2024/01/25 04:29:10;;;;;;;45.60;22.98;;;;;;;;;;5032116;28;20045;-77
2024/01/25 04:31:43;;;;;;;45.22;22.85;;;;;;;;;;5031243;28;20155;-78
2024/01/25 04:34:09;;;;;;;50.20;22.83;;;;;;;;;;5027344;28;20044;-78
2024/01/25 04:36:34;;;;;;;52.70;24.95;;;;;;;;;;5006836;28;20034;-78
2024/01/25 04:39:00;;;;;;;69.03;24.75;;;;;;;;;;4991420;28;20040;-78
2024/01/25 04:41:26;;;;;;;55.35;22.55;;;;;;;;;;5010385;28;20030;-77
2024/01/25 04:43:52;;;;;;;47.80;23.08;;;;;;;;;;5009384;28;20025;-78
2024/01/25 04:46:18;;;;;;;38.38;21.50;;;;;;;;;;5010665;28;20105;-78
2024/01/25 04:48:45;;;;;;;53.42;23.77;;;;;;;;;;5010472;28;20117;-77
2024/01/25 04:51:17;;;;;;;50.70;24.88;;;;;;;;;;5011653;28;20524;-77
2024/01/25 04:53:43;;;;;;;54.05;25.95;;;;;;;;;;4993931;28;20065;-77
2024/01/25 04:56:09;;;;;;;69.75;30.10;;;;;;;;;;5011298;28;20029;-78
2024/01/25 04:58:35;;;;;;;67.07;31.23;;;;;;;;;;5011545;28;20109;-77
2024/01/25 05:01:02;;;;;;;79.35;30.35;;;;;;;;;;5012175;28;20125;-78
2024/01/25 05:03:28;;;;;;;56.50;25.95;;;;;;;;;;4993791;28;20033;-77
2024/01/25 05:05:54;;;;;;;58.08;27.35;;;;;;;;;;5011329;28;20523;-78
2024/01/25 05:08:19;;;;;;;61.08;27.83;;;;;;;;;;5010056;28;20048;-77
2024/01/25 05:10:45;;;;;;;47.47;24.30;;;;;;;;;;5011225;28;20049;-77
2024/01/25 05:13:12;;;;;;;60.38;28.02;;;;;;;;;;5009476;28;20041;-77
2024/01/25 05:15:39;;;;;;;53.25;26.30;;;;;;;;;;5011295;28;20068;-78
2024/01/25 05:18:06;;;;;;;55.92;27.80;;;;;;;;;;5011551;28;20030;-78
2024/01/25 05:20:32;;;;;;;70.22;28.98;;;;;;;;;;5011318;28;20038;-78
2024/01/25 05:23:05;;;;;;;66.53;31.40;;;;;;;;;;4994087;28;20129;-77
2024/01/25 05:25:31;;;;;;;68.82;28.98;;;;;;;;;;5010349;28;20034;-77
2024/01/25 05:27:57;;;;;;;57.17;28.15;;;;;;;;;;5010308;28;20387;-77
2024/01/25 05:30:24;;;;;;;49.97;25.58;;;;;;;;;;5010944;28;20117;-76
2024/01/25 05:32:50;;;;;;;61.10;26.50;;;;;;;;;;5009188;28;20123;-77
2024/01/25 05:35:17;;;;;;;68.15;26.35;;;;;;;;;;5009840;28;20057;-76
2024/01/25 05:37:43;;;;;;;55.80;25.20;;;;;;;;;;5009825;28;20116;-76
2024/01/25 05:40:11;;;;;;;57.92;30.70;;;;;;;;;;5008577;28;20053;-78
2024/01/25 05:42:36;;;;;;;92.55;37.08;;;;;;;;;;5013012;28;20036;-77
2024/01/25 05:45:03;;;;;;;67.70;29.23;;;;;;;;;;5014192;28;20113;-77
2024/01/25 05:47:30;;;;;;;61.17;31.08;;;;;;;;;;5013539;28;20041;-77
2024/01/25 05:49:56;;;;;;;86.88;42.03;;;;;;;;;;5014850;28;20032;-78
2024/01/25 05:52:24;;;;;;;97.18;45.50;;;;;;;;;;5014727;28;20440;-77
2024/01/25 05:54:50;;;;;;;65.65;32.08;;;;;;;;;;5014552;28;20029;-76
2024/01/25 05:57:20;;;;;;;69.07;28.65;;;;;;;;;;5014427;28;20395;-77
2024/01/25 05:59:45;;;;;;;58.38;26.58;;;;;;;;;;5014385;28;20069;-78
2024/01/25 06:02:11;;;;;;;49.88;22.65;;;;;;;;;;5012621;28;20408;-77
2024/01/25 06:04:37;;;;;;;57.05;25.50;;;;;;;;;;5013306;28;20029;-78
2024/01/25 06:07:12;;;;;;;35.75;20.80;;;;;;;;;;5013944;28;20033;-78
2024/01/25 06:09:43;;;;;;;49.75;20.70;;;;;;;;;;5014375;28;20042;-79
2024/01/25 06:12:10;;;;;;;40.70;21.80;;;;;;;;;;5012605;28;20042;-77
2024/01/25 06:14:35;;;;;;;46.35;20.20;;;;;;;;;;5013712;28;20048;-77
2024/01/25 06:17:01;;;;;;;54.75;19.67;;;;;;;;;;5012581;28;20030;-77
2024/01/25 06:19:27;;;;;;;48.85;22.58;;;;;;;;;;5013822;28;20069;-77
2024/01/25 06:21:54;;;;;;;56.42;24.45;;;;;;;;;;5012486;28;20049;-78
2024/01/25 06:24:20;;;;;;;32.15;18.30;;;;;;;;;;5013599;28;20034;-76
2024/01/25 06:26:46;;;;;;;46.13;17.40;;;;;;;;;;5012190;28;20184;-77
2024/01/25 06:29:12;;;;;;;24.02;13.48;;;;;;;;;;5012002;28;20472;-78
2024/01/25 06:31:44;;;;;;;41.28;21.55;;;;;;;;;;5013634;28;20098;-77
2024/01/25 06:34:10;;;;;;;63.55;23.15;;;;;;;;;;5012222;28;20038;-78
2024/01/25 06:36:36;;;;;;;75.97;29.67;;;;;;;;;;4990155;28;20472;-77
2024/01/25 06:39:04;;;;;;;55.22;26.63;;;;;;;;;;5013791;28;20030;-76
2024/01/25 06:41:30;;;;;;;65.15;27.83;;;;;;;;;;5012231;28;20038;-78
2024/01/25 06:43:56;;;;;;;57.42;26.35;;;;;;;;;;5013521;28;20018;-78
2024/01/25 06:46:24;;;;;;;52.65;23.98;;;;;;;;;;5013203;28;20037;-78
2024/01/25 06:48:51;;;;;;;57.90;25.08;;;;;;;;;;5013477;28;20111;-78
2024/01/25 06:51:16;;;;;;;45.60;22.40;;;;;;;;;;5012034;28;20021;-76
2024/01/25 06:53:42;;;;;;;44.28;22.65;;;;;;;;;;4994852;28;20538;-78
2024/01/25 06:56:08;;;;;;;42.40;21.20;;;;;;;;;;5011754;28;20480;-77
2024/01/25 06:58:33;;;;;;;51.63;21.63;;;;;;;;;;5012912;28;20364;-75
2024/01/25 07:01:01;;;;;;;38.88;20.17;;;;;;;;;;5011248;28;20077;-77
2024/01/25 07:03:27;;;;;;;40.38;18.95;;;;;;;;;;5011843;28;20029;-77
2024/01/25 07:05:53;;;;;;;48.78;21.92;;;;;;;;;;5011314;28;20103;-78
2024/01/25 07:08:19;;;;;;;49.58;19.98;;;;;;;;;;5012747;28;20072;-77
2024/01/25 07:10:47;;;;;;;30.80;17.38;;;;;;;;;;5012652;28;20436;-78
2024/01/25 07:13:13;;;;;;;42.95;21.08;;;;;;;;;;5013204;28;20030;-78
2024/01/25 07:15:39;;;;;;;39.85;16.73;;;;;;;;;;5013480;28;20034;-77
2024/01/25 07:18:05;;;;;;;50.40;18.67;;;;;;;;;;5012781;28;20152;-77
2024/01/25 07:20:30;;;;;;;38.63;18.05;;;;;;;;;;5011304;28;20082;-78
2024/01/25 07:22:57;;;;;;;40.38;18.67;;;;;;;;;;5011458;28;20344;-78
2024/01/25 07:25:22;;;;;;;33.97;18.10;;;;;;;;;;5011149;28;20033;-77
2024/01/25 07:27:49;;;;;;;34.88;17.65;;;;;;;;;;5010984;28;20042;-79
2024/01/25 07:30:15;;;;;;;42.47;19.95;;;;;;;;;;5010976;28;20055;-78
2024/01/25 07:32:42;;;;;;;45.22;20.83;;;;;;;;;;4995054;28;20025;-78
2024/01/25 07:35:12;;;;;;;48.92;21.88;;;;;;;;;;5012724;28;20033;-78
2024/01/25 07:37:42;;;;;;;39.30;19.15;;;;;;;;;;5012501;28;20033;-78
2024/01/25 07:40:11;;;;;;;38.00;19.15;;;;;;;;;;5010607;28;20041;-78
2024/01/25 07:42:37;;;;;;;49.15;22.05;;;;;;;;;;5012410;28;20070;-78
2024/01/25 07:45:03;;;;;;;47.50;22.55;;;;;;;;;;5012388;28;20435;-78
2024/01/25 07:47:29;;;;;;;41.60;21.52;;;;;;;;;;5010994;28;20030;-78
2024/01/25 07:49:55;;;;;;;37.42;21.00;;;;;;;;;;4975227;28;20146;-78
2024/01/25 07:52:21;;;;;;;36.85;20.83;;;;;;;;;;4991812;28;20050;-77
2024/01/25 07:54:46;;;;;;;49.42;25.60;;;;;;;;;;5008980;28;20057;-78
2024/01/25 07:57:12;;;;;;;45.35;25.27;;;;;;;;;;5012101;28;20040;-77
2024/01/25 07:59:43;;;;;;;48.38;26.58;;;;;;;;;;5015485;28;20562;-78
2024/01/25 08:02:09;;;;;;;57.75;28.25;;;;;;;;;;5018133;28;20076;-77
2024/01/25 08:04:35;;;;;;;57.05;28.88;;;;;;;;;;5010170;28;20030;-79
2024/01/25 08:07:01;;;;;;;65.95;33.42;;;;;;;;;;5012416;28;20483;-78
2024/01/25 08:09:28;;;;;;;67.53;31.17;;;;;;;;;;5011205;28;20079;-78
2024/01/25 08:11:55;;;;;;;78.60;33.78;;;;;;;;;;5012420;28;20189;-78
2024/01/25 08:14:21;;;;;;;70.75;32.00;;;;;;;;;;5011151;28;20184;-77
2024/01/25 08:16:47;;;;;;;56.50;30.65;;;;;;;;;;5012191;28;20061;-78
2024/01/25 08:19:12;;;;;;;64.28;32.35;;;;;;;;;;5011450;28;20044;-79
2024/01/25 08:21:38;;;;;;;64.88;33.45;;;;;;;;;;5010605;28;20414;-79
2024/01/25 08:24:04;;;;;;;62.45;30.50;;;;;;;;;;5012731;28;20596;-78
2024/01/25 08:26:30;;;;;;;64.88;30.60;;;;;;;;;;5010922;28;20045;-78
2024/01/25 08:28:55;;;;;;;70.85;32.55;;;;;;;;;;4994181;28;20034;-77
2024/01/25 08:31:24;;;;;;;66.32;31.50;;;;;;;;;;5011871;28;20049;-76
2024/01/25 08:33:51;;;;;;;69.20;34.38;;;;;;;;;;5010665;28;20033;-80
2024/01/25 08:36:18;;;;;;;69.57;34.05;;;;;;;;;;5011995;28;20057;-78
2024/01/25 08:38:45;;;;;;;72.88;33.25;;;;;;;;;;5010263;28;20033;-81
2024/01/25 08:41:11;;;;;;;67.32;32.25;;;;;;;;;;5010346;28;20092;-77
2024/01/25 08:43:37;;;;;;;54.17;30.70;;;;;;;;;;5012839;28;20107;-78
2024/01/25 08:46:03;;;;;;;58.97;31.52;;;;;;;;;;5011852;28;20110;-78
2024/01/25 08:48:30;;;;;;;63.85;32.58;;;;;;;;;;5010603;28;20492;-79
2024/01/25 08:50:56;;;;;;;63.67;31.10;;;;;;;;;;5009932;28;20068;-77
2024/01/25 08:53:26;;;;;;;55.85;32.33;;;;;;;;;;5011124;28;20069;-78
2024/01/25 08:55:53;;;;;;;58.38;33.22;;;;;;;;;;5011607;28;20065;-77
2024/01/25 08:58:19;;;;;;;66.63;35.30;;;;;;;;;;5011948;28;20117;-77
2024/01/25 09:00:45;;;;;;;66.40;32.65;;;;;;;;;;5013236;28;20053;-77
2024/01/25 09:03:11;;;;;;;59.78;32.03;;;;;;;;;;5011019;28;20041;-77
2024/01/25 09:05:40;;;;;;;63.65;33.35;;;;;;;;;;5012615;28;20030;-78
2024/01/25 09:08:06;;;;;;;85.40;36.85;;;;;;;;;;5012002;28;20094;-76
2024/01/25 09:10:32;;;;;;;66.75;33.85;;;;;;;;;;5011120;28;20080;-76
2024/01/25 09:12:58;;;;;;;65.72;34.35;;;;;;;;;;5011035;28;20049;-78
2024/01/25 09:15:24;;;;;;;65.05;31.23;;;;;;;;;;5011349;28;20060;-76
2024/01/25 09:17:49;;;;;;;60.00;30.48;;;;;;;;;;5014162;28;20476;-77
2024/01/25 09:20:18;;;;;;;70.28;31.17;;;;;;;;;;5015274;28;20030;-78
2024/01/25 09:22:44;;;;;;;54.80;32.72;;;;;;;;;;5016337;28;20509;-79
2024/01/25 09:25:10;;;;;;;55.40;32.13;;;;;;;;;;5014175;28;20113;-78
2024/01/25 09:27:36;;;;;;;58.47;31.05;;;;;;;;;;5015279;28;20026;-76
2024/01/25 09:30:02;;;;;;;62.88;31.42;;;;;;;;;;5015060;28;20041;-77
2024/01/25 09:32:28;;;;;;;55.20;31.45;;;;;;;;;;5014908;28;20026;-78
2024/01/25 09:34:54;;;;;;;62.97;32.80;;;;;;;;;;5013352;28;20456;-77
2024/01/25 09:37:23;;;;;;;59.45;31.92;;;;;;;;;;5013457;28;20049;-77
2024/01/25 09:39:49;;;;;;;53.72;31.80;;;;;;;;;;5015110;28;20141;-78
2024/01/25 09:42:15;;;;;;;57.80;31.63;;;;;;;;;;5014536;28;20104;-79
2024/01/25 09:44:43;;;;;;;61.00;32.35;;;;;;;;;;5013256;28;20570;-78
2024/01/25 09:47:10;;;;;;;63.75;31.40;;;;;;;;;;5014621;28;20029;-78
2024/01/25 09:49:35;;;;;;;65.45;34.97;;;;;;;;;;5013410;28;20033;-77
2024/01/25 09:52:07;;;;;;;64.03;36.95;;;;;;;;;;5013564;28;20042;-77
2024/01/25 09:54:35;;;;;;;88.18;41.20;;;;;;;;;;5014634;28;20036;-78
2024/01/25 09:57:06;;;;;;;59.90;33.35;;;;;;;;;;5013239;28;20113;-78
2024/01/25 09:59:32;;;;;;;54.63;29.08;;;;;;;;;;4996694;28;20034;-79
2024/01/25 10:02:01;;;;;;;42.45;24.52;;;;;;;;;;5012898;28;20518;-79
2024/01/25 10:04:26;;;;;;;34.58;18.35;;;;;;;;;;5014516;28;20117;-78
2024/01/25 10:06:56;;;;;;;26.63;15.23;;;;;;;;;;5006077;28;20109;-78
2024/01/25 10:09:22;;;;;;;34.08;17.75;;;;;;;;;;4986839;28;20088;-78
2024/01/25 10:11:48;;;;;;;25.48;13.30;;;;;;;;;;5002060;28;20097;-77
2024/01/25 10:14:15;;;;;;;24.60;13.27;;;;;;;;;;4986753;28;20037;-76
2024/01/25 10:16:40;;;;;;;19.55;11.95;;;;;;;;;;4996586;28;20057;-78
2024/01/25 10:19:09;;;;;;;21.05;10.10;;;;;;;;;;5013892;28;20103;-78
2024/01/25 10:21:36;;;;;;;16.17;9.63;;;;;;;;;;4996743;28;20507;-77
2024/01/25 10:24:03;;;;;;;18.73;10.05;;;;;;;;;;5007754;28;20046;-77
2024/01/25 10:26:29;;;;;;;18.80;10.70;;;;;;;;;;5012616;28;20476;-79
2024/01/25 10:28:55;;;;;;;21.00;11.15;;;;;;;;;;5013845;28;20037;-77
2024/01/25 10:31:27;;;;;;;18.73;9.55;;;;;;;;;;5014309;28;20084;-78
2024/01/25 10:34:15;;;;;;;15.52;8.23;;;;;;;;;;5013677;28;20534;-78
2024/01/25 10:36:41;;;;;;;18.60;8.50;;;;;;;;;;5008876;28;20037;-77
2024/01/25 10:39:08;;;;;;;13.13;7.10;;;;;;;;;;5014249;28;20048;-79
2024/01/25 10:41:34;;;;;;;15.70;8.30;;;;;;;;;;5013838;28;20029;-78
2024/01/25 10:44:01;;;;;;;14.57;7.65;;;;;;;;;;5013454;28;20045;-77
2024/01/25 10:46:29;;;;;;;12.70;7.38;;;;;;;;;;5013289;28;20438;-78
2024/01/25 10:48:58;;;;;;;18.70;7.82;;;;;;;;;;5013331;28;20079;-77
2024/01/25 10:51:26;;;;;;;10.82;6.45;;;;;;;;;;5013401;28;20037;-78
2024/01/25 10:53:53;;;;;;;14.18;7.15;;;;;;;;;;5012008;28;20061;-78
2024/01/25 10:56:18;;;;;;;20.60;9.65;;;;;;;;;;5013342;28;20026;-78
2024/01/25 10:58:45;;;;;;;16.33;7.75;;;;;;;;;;5013099;28;20036;-78
2024/01/25 11:01:11;;;;;;;16.63;7.88;;;;;;;;;;5012835;28;20113;-78
2024/01/25 11:03:39;;;;;;;20.13;8.13;;;;;;;;;;5011826;28;20172;-77
2024/01/25 11:06:11;;;;;;;16.10;8.02;;;;;;;;;;5011844;28;20030;-77
2024/01/25 11:08:38;;;;;;;18.80;8.93;;;;;;;;;;5011569;28;20475;-77
2024/01/25 11:11:10;;;;;;;15.82;8.43;;;;;;;;;;5011640;28;20279;-77
2024/01/25 11:13:43;;;;;;;16.85;8.40;;;;;;;;;;5011237;28;20053;-77
2024/01/25 11:16:17;;;;;;;20.55;8.35;;;;;;;;;;4994827;28;20070;-78
2024/01/25 11:18:58;;;;;;;17.85;7.68;;;;;;;;;;5008404;28;20152;-78
2024/01/25 11:21:46;;;;;;;15.15;8.10;;;;;;;;;;5019318;28;20044;-78
2024/01/25 11:24:25;;;;;;;14.57;8.63;;;;;;;;;;5011964;28;20042;-78
2024/01/25 11:26:54;;;;;;;17.42;8.60;;;;;;;;;;5012606;28;20300;-78
2024/01/25 11:29:25;;;;;;;13.18;7.22;;;;;;;;;;5012178;28;20041;-78
2024/01/25 11:32:09;;;;;;;14.35;7.63;;;;;;;;;;5020710;28;20041;-77
2024/01/25 11:34:40;;;;;;;14.32;7.47;;;;;;;;;;5012910;28;20636;-78
2024/01/25 11:37:06;;;;;;;13.70;8.07;;;;;;;;;;4994355;28;20042;-78
2024/01/25 11:39:32;;;;;;;18.88;7.35;;;;;;;;;;5010872;28;20032;-78
2024/01/25 11:41:57;;;;;;;15.05;6.55;;;;;;;;;;5011993;28;20044;-79
2024/01/25 11:44:25;;;;;;;11.82;8.00;;;;;;;;;;5010993;28;20084;-78
2024/01/25 11:46:54;;;;;;;20.08;8.55;;;;;;;;;;5009274;28;20028;-78
2024/01/25 11:49:20;;;;;;;15.73;7.75;;;;;;;;;;5020558;28;20116;-78
2024/01/25 11:51:47;;;;;;;20.67;7.57;;;;;;;;;;5011111;28;20030;-77
2024/01/25 11:54:13;;;;;;;13.30;7.15;;;;;;;;;;5012105;28;20045;-78
2024/01/25 11:56:40;;;;;;;16.83;8.43;;;;;;;;;;5012145;28;20065;-78
2024/01/25 11:59:07;;;;;;;23.88;9.73;;;;;;;;;;5012128;28;20060;-78
2024/01/25 12:01:34;;;;;;;13.10;7.00;;;;;;;;;;5011901;28;20377;-79
2024/01/25 12:04:01;;;;;;;19.10;8.57;;;;;;;;;;5010650;28;20052;-78
2024/01/25 12:06:27;;;;;;;14.35;9.00;;;;;;;;;;4996737;28;20038;-76
2024/01/25 12:08:53;;;;;;;14.73;7.38;;;;;;;;;;5012442;28;20050;-77
2024/01/25 12:11:22;;;;;;;13.32;7.75;;;;;;;;;;5012077;28;20080;-78
2024/01/25 12:13:49;;;;;;;16.20;10.27;;;;;;;;;;5012780;28;20500;-78
2024/01/25 12:16:14;;;;;;;11.55;8.07;;;;;;;;;;5012031;28;20622;-77
2024/01/25 12:18:43;;;;;;;12.32;7.30;;;;;;;;;;5010377;28;20117;-78
2024/01/25 12:21:09;;;;;;;34.00;16.25;;;;;;;;;;5010031;28;20042;-78
2024/01/25 12:23:37;;;;;;;19.70;9.10;;;;;;;;;;5010368;28;20149;-78
2024/01/25 12:26:08;;;;;;;16.38;8.60;;;;;;;;;;5011868;28;20506;-78
2024/01/25 12:28:34;;;;;;;14.52;8.65;;;;;;;;;;5010797;28;20042;-78
2024/01/25 12:31:01;;;;;;;13.00;7.75;;;;;;;;;;5011372;28;20029;-78
2024/01/25 12:33:27;;;;;;;12.18;7.28;;;;;;;;;;5010188;28;20034;-78
2024/01/25 12:35:56;;;;;;;11.48;7.18;;;;;;;;;;5010497;28;20180;-77
2024/01/25 12:38:25;;;;;;;15.25;8.27;;;;;;;;;;5010549;28;20143;-77
2024/01/25 12:40:53;;;;;;;11.95;7.20;;;;;;;;;;5010699;28;20456;-79
2024/01/25 12:43:22;;;;;;;21.27;10.77;;;;;;;;;;5011554;28;20037;-78
2024/01/25 12:45:49;;;;;;;10.80;6.97;;;;;;;;;;5011666;28;20033;-76
2024/01/25 12:48:18;;;;;;;15.75;7.30;;;;;;;;;;5012358;28;20117;-77
2024/01/25 12:50:44;;;;;;;14.82;7.13;;;;;;;;;;5010856;28;20037;-76
2024/01/25 12:53:12;;;;;;;12.57;7.00;;;;;;;;;;5011100;28;20120;-76
2024/01/25 12:55:38;;;;;;;11.35;7.43;;;;;;;;;;5011415;28;20087;-78
2024/01/25 12:58:04;;;;;;;12.50;7.00;;;;;;;;;;5011612;28;20528;-76
2024/01/25 13:00:30;;;;;;;9.15;6.20;;;;;;;;;;5009835;28;20126;-78
2024/01/25 13:02:56;;;;;;;13.38;7.30;;;;;;;;;;5009895;28;20041;-79
2024/01/25 13:05:23;;;;;;;11.43;7.40;;;;;;;;;;5009765;28;20030;-77
2024/01/25 13:07:49;;;;;;;10.70;7.15;;;;;;;;;;5011399;28;20037;-78
2024/01/25 13:10:14;;;;;;;12.60;5.22;;;;;;;;;;5012028;28;20130;-78
2024/01/25 13:12:41;;;;;;;12.02;7.65;;;;;;;;;;5011417;28;20025;-77
2024/01/25 13:15:08;;;;;;;10.40;4.88;;;;;;;;;;5009933;28;20081;-78
2024/01/25 13:17:37;;;;;;;15.90;6.97;;;;;;;;;;5011361;28;20040;-77
2024/01/25 13:20:07;;;;;;;14.95;5.68;;;;;;;;;;5009421;28;20112;-78
2024/01/25 13:22:33;;;;;;;13.73;6.88;;;;;;;;;;5011842;28;20030;-78
2024/01/25 13:25:00;;;;;;;8.45;5.35;;;;;;;;;;5010446;28;20080;-79
2024/01/25 13:27:27;;;;;;;8.95;5.68;;;;;;;;;;5009931;28;20036;-79
2024/01/25 13:29:53;;;;;;;12.13;5.68;;;;;;;;;;5010166;28;20141;-79
2024/01/25 13:32:22;;;;;;;11.30;6.45;;;;;;;;;;5010432;28;20029;-79
2024/01/25 13:34:48;;;;;;;13.63;6.47;;;;;;;;;;5011399;28;20042;-78
2024/01/25 13:37:14;;;;;;;14.85;6.95;;;;;;;;;;5008104;28;20049;-79
2024/01/25 13:39:41;;;;;;;10.25;6.07;;;;;;;;;;5011137;28;20041;-77
2024/01/25 13:42:06;;;;;;;12.30;5.70;;;;;;;;;;5011127;28;20034;-78
2024/01/25 13:44:33;;;;;;;9.02;5.32;;;;;;;;;;4976863;28;20030;-78
2024/01/25 13:46:59;;;;;;;14.13;6.32;;;;;;;;;;5010626;28;20029;-76
2024/01/25 13:49:25;;;;;;;21.38;11.95;;;;;;;;;;5010913;28;20037;-79
2024/01/25 13:51:50;;;;;;;19.52;10.05;;;;;;;;;;5010123;28;20082;-76
2024/01/25 13:54:17;;;;;;;26.10;10.05;;;;;;;;;;5026437;28;20037;-78
2024/01/25 13:56:42;;;;;;;22.42;7.70;;;;;;;;;;5012720;28;20042;-79
2024/01/25 13:59:09;;;;;;;23.58;7.30;;;;;;;;;;5030783;28;20041;-80
2024/01/25 14:01:37;;;;;;;18.75;6.95;;;;;;;;;;5029704;28;20113;-80
2024/01/25 14:04:03;;;;;;;10.23;4.68;;;;;;;;;;5017566;28;20065;-81
2024/01/25 14:06:31;;;;;;;11.35;5.25;;;;;;;;;;5015024;28;20061;-81
2024/01/25 14:08:56;;;;;;;14.18;5.80;;;;;;;;;;5014456;28;20101;-77
2024/01/25 14:11:24;;;;;;;10.35;5.10;;;;;;;;;;5013939;28;20066;-79
2024/01/25 14:13:51;;;;;;;9.38;4.65;;;;;;;;;;5012554;28;20083;-79
2024/01/25 14:16:17;;;;;;;9.80;5.80;;;;;;;;;;5012193;28;20076;-78
2024/01/25 14:18:44;;;;;;;6.43;4.10;;;;;;;;;;5014519;28;20030;-79